sensor_id;sensor_type;location;lat;lon;timestamp;temperature;humidity
23591;DHT22;11973;52.098;7.582;2023-12-20T00:01:24;6.80;99.90
23591;DHT22;11973;52.098;7.582;2023-12-20T00:03:50;6.80;99.90
23591;DHT22;11973;52.098;7.582;2023-12-20T00:06:16;6.80;99.90
23591;DHT22;11973;52.098;7.582;2023-12-20T00:08:41;6.70;99.90
23591;DHT22;11973;52.098;7.582;2023-12-20T00:11:07;6.70;99.90
23591;DHT22;11973;52.098;7.582;2023-12-20T00:13:33;6.70;99.90
23591;DHT22;11973;52.098;7.582;2023-12-20T00:15:59;6.70;99.90
23591;DHT22;11973;52.098;7.582;2023-12-20T00:18:24;6.70;99.90
23591;DHT22;11973;52.098;7.582;2023-12-20T00:20:50;6.70;99.90
23591;DHT22;11973;52.098;7.582;2023-12-20T00:23:16;6.70;99.90
23591;DHT22;11973;52.098;7.582;2023-12-20T00:25:42;6.70;99.90
23591;DHT22;11973;52.098;7.582;2023-12-20T00:28:08;6.80;99.90
23591;DHT22;11973;52.098;7.582;2023-12-20T05:17:48;6.20;99.90
23591;DHT22;11973;52.098;7.582;2023-12-20T05:20:14;6.20;99.90
23591;DHT22;11973;52.098;7.582;2023-12-20T05:22:41;6.20;99.90
23591;DHT22;11973;52.098;7.582;2023-12-20T05:25:07;6.20;99.90
23591;DHT22;11973;52.098;7.582;2023-12-20T05:27:33;6.20;99.90
23591;DHT22;11973;52.098;7.582;2023-12-20T05:29:58;6.20;99.90
23591;DHT22;11973;52.098;7.582;2023-12-20T05:32:24;6.20;99.90
23591;DHT22;11973;52.098;7.582;2023-12-20T05:34:50;6.20;99.90
23591;DHT22;11973;52.098;7.582;2023-12-20T05:37:16;6.20;99.90
23591;DHT22;11973;52.098;7.582;2023-12-20T05:39:42;6.20;99.90
23591;DHT22;11973;52.098;7.582;2023-12-20T05:42:07;6.20;99.90
23591;DHT22;11973;52.098;7.582;2023-12-20T05:44:33;6.20;99.90
23591;DHT22;11973;52.098;7.582;2023-12-20T05:46:59;6.20;99.90
23591;DHT22;11973;52.098;7.582;2023-12-20T05:49:25;6.20;99.90
23591;DHT22;11973;52.098;7.582;2023-12-20T05:51:50;6.30;99.90
23591;DHT22;11973;52.098;7.582;2023-12-20T05:54:16;6.30;99.90
23591;DHT22;11973;52.098;7.582;2023-12-20T05:56:42;6.30;99.90
23591;DHT22;11973;52.098;7.582;2023-12-20T05:59:08;6.30;99.90
23591;DHT22;11973;52.098;7.582;2023-12-20T06:01:33;6.30;99.90
23591;DHT22;11973;52.098;7.582;2023-12-20T06:03:59;6.30;99.90
23591;DHT22;11973;52.098;7.582;2023-12-20T06:06:25;6.30;99.90
23591;DHT22;11973;52.098;7.582;2023-12-20T06:08:51;6.30;99.90
23591;DHT22;11973;52.098;7.582;2023-12-20T06:11:16;6.40;99.90
23591;DHT22;11973;52.098;7.582;2023-12-20T06:13:42;6.30;99.90
23591;DHT22;11973;52.098;7.582;2023-12-20T06:16:08;6.40;99.90
23591;DHT22;11973;52.098;7.582;2023-12-20T06:18:34;6.30;99.90
23591;DHT22;11973;52.098;7.582;2023-12-20T06:21:00;6.40;99.90
23591;DHT22;11973;52.098;7.582;2023-12-20T06:23:25;6.40;99.90
23591;DHT22;11973;52.098;7.582;2023-12-20T06:25:52;6.40;99.90
23591;DHT22;11973;52.098;7.582;2023-12-20T06:28:18;6.40;99.90
23591;DHT22;11973;52.098;7.582;2023-12-20T06:30:44;6.40;99.90
23591;DHT22;11973;52.098;7.582;2023-12-20T06:33:11;6.40;99.90
23591;DHT22;11973;52.098;7.582;2023-12-20T06:35:37;6.40;99.90
23591;DHT22;11973;52.098;7.582;2023-12-20T06:38:03;6.40;99.90
23591;DHT22;11973;52.098;7.582;2023-12-20T06:40:28;6.40;99.90
23591;DHT22;11973;52.098;7.582;2023-12-20T06:42:54;6.40;99.90
23591;DHT22;11973;52.098;7.582;2023-12-20T06:45:20;6.40;99.90
23591;DHT22;11973;52.098;7.582;2023-12-20T06:47:46;6.40;99.90
23591;DHT22;11973;52.098;7.582;2023-12-20T06:50:11;6.40;99.90
23591;DHT22;11973;52.098;7.582;2023-12-20T06:52:37;6.40;99.90
23591;DHT22;11973;52.098;7.582;2023-12-20T06:55:03;6.50;99.90
23591;DHT22;11973;52.098;7.582;2023-12-20T06:57:29;6.50;99.90
23591;DHT22;11973;52.098;7.582;2023-12-20T06:59:55;6.50;99.90
23591;DHT22;11973;52.098;7.582;2023-12-20T07:02:21;6.50;99.90
23591;DHT22;11973;52.098;7.582;2023-12-20T07:04:48;6.50;99.90
23591;DHT22;11973;52.098;7.582;2023-12-20T07:07:13;6.50;99.90
23591;DHT22;11973;52.098;7.582;2023-12-20T07:09:39;6.50;99.90
23591;DHT22;11973;52.098;7.582;2023-12-20T07:12:08;6.50;99.90
23591;DHT22;11973;52.098;7.582;2023-12-20T07:14:34;6.50;99.90
23591;DHT22;11973;52.098;7.582;2023-12-20T07:17:00;6.50;99.90
23591;DHT22;11973;52.098;7.582;2023-12-20T07:19:26;6.50;99.90
23591;DHT22;11973;52.098;7.582;2023-12-20T07:21:51;6.50;99.90
23591;DHT22;11973;52.098;7.582;2023-12-20T07:24:18;6.50;99.90
23591;DHT22;11973;52.098;7.582;2023-12-20T07:26:44;6.50;99.90
23591;DHT22;11973;52.098;7.582;2023-12-20T07:29:10;6.50;99.90
23591;DHT22;11973;52.098;7.582;2023-12-20T07:31:35;6.50;99.90
23591;DHT22;11973;52.098;7.582;2023-12-20T07:34:01;6.50;99.90
23591;DHT22;11973;52.098;7.582;2023-12-20T07:36:27;6.60;99.90
23591;DHT22;11973;52.098;7.582;2023-12-20T07:38:52;6.50;99.90
23591;DHT22;11973;52.098;7.582;2023-12-20T07:41:18;6.60;99.90
23591;DHT22;11973;52.098;7.582;2023-12-20T07:43:46;6.60;99.90
23591;DHT22;11973;52.098;7.582;2023-12-20T07:46:12;6.60;99.90
23591;DHT22;11973;52.098;7.582;2023-12-20T07:48:38;6.60;99.90
23591;DHT22;11973;52.098;7.582;2023-12-20T07:51:04;6.60;99.90
23591;DHT22;11973;52.098;7.582;2023-12-20T07:53:32;6.60;99.90
23591;DHT22;11973;52.098;7.582;2023-12-20T07:55:58;6.60;99.90
23591;DHT22;11973;52.098;7.582;2023-12-20T07:58:24;6.60;99.90
23591;DHT22;11973;52.098;7.582;2023-12-20T08:00:50;6.60;99.90
23591;DHT22;11973;52.098;7.582;2023-12-20T08:03:15;6.60;99.90
23591;DHT22;11973;52.098;7.582;2023-12-20T08:05:41;6.60;99.90
23591;DHT22;11973;52.098;7.582;2023-12-20T08:08:07;6.60;99.90
23591;DHT22;11973;52.098;7.582;2023-12-20T08:10:33;6.60;99.90
23591;DHT22;11973;52.098;7.582;2023-12-20T08:12:59;6.60;99.90
23591;DHT22;11973;52.098;7.582;2023-12-20T08:15:24;6.70;99.90
23591;DHT22;11973;52.098;7.582;2023-12-20T08:17:50;6.60;99.90
23591;DHT22;11973;52.098;7.582;2023-12-20T08:20:17;6.70;99.90
23591;DHT22;11973;52.098;7.582;2023-12-20T08:22:42;6.70;99.90
23591;DHT22;11973;52.098;7.582;2023-12-20T08:25:08;6.70;99.90
23591;DHT22;11973;52.098;7.582;2023-12-20T08:27:39;6.70;99.90
23591;DHT22;11973;52.098;7.582;2023-12-20T08:30:05;6.70;99.90
23591;DHT22;11973;52.098;7.582;2023-12-20T08:32:31;6.70;99.90
23591;DHT22;11973;52.098;7.582;2023-12-20T08:34:57;6.80;99.90
23591;DHT22;11973;52.098;7.582;2023-12-20T08:37:24;6.80;99.90
23591;DHT22;11973;52.098;7.582;2023-12-20T08:39:49;6.80;99.90
23591;DHT22;11973;52.098;7.582;2023-12-20T08:42:15;6.80;99.90
23591;DHT22;11973;52.098;7.582;2023-12-20T08:44:41;6.80;99.90
23591;DHT22;11973;52.098;7.582;2023-12-20T08:47:06;6.90;99.90
23591;DHT22;11973;52.098;7.582;2023-12-20T08:49:32;6.90;99.90
23591;DHT22;11973;52.098;7.582;2023-12-20T08:51:58;6.90;99.90
23591;DHT22;11973;52.098;7.582;2023-12-20T08:54:24;6.90;99.90
23591;DHT22;11973;52.098;7.582;2023-12-20T08:56:50;7.00;99.90
23591;DHT22;11973;52.098;7.582;2023-12-20T08:59:16;7.00;99.90
23591;DHT22;11973;52.098;7.582;2023-12-20T09:01:41;7.00;99.90
23591;DHT22;11973;52.098;7.582;2023-12-20T09:04:07;7.10;99.90
23591;DHT22;11973;52.098;7.582;2023-12-20T09:06:33;7.10;99.90
23591;DHT22;11973;52.098;7.582;2023-12-20T09:09:01;7.10;99.90
23591;DHT22;11973;52.098;7.582;2023-12-20T09:11:28;7.10;99.90
23591;DHT22;11973;52.098;7.582;2023-12-20T09:13:53;7.10;99.90
23591;DHT22;11973;52.098;7.582;2023-12-20T09:16:19;7.10;99.90
23591;DHT22;11973;52.098;7.582;2023-12-20T09:18:45;7.10;99.90
23591;DHT22;11973;52.098;7.582;2023-12-20T09:21:11;7.10;99.90
23591;DHT22;11973;52.098;7.582;2023-12-20T09:23:37;7.10;99.90
23591;DHT22;11973;52.098;7.582;2023-12-20T09:26:04;7.10;99.90
23591;DHT22;11973;52.098;7.582;2023-12-20T09:28:30;7.10;99.90
23591;DHT22;11973;52.098;7.582;2023-12-20T09:30:56;7.10;99.90
23591;DHT22;11973;52.098;7.582;2023-12-20T09:33:22;7.20;99.90
23591;DHT22;11973;52.098;7.582;2023-12-20T09:35:50;7.20;99.90
23591;DHT22;11973;52.098;7.582;2023-12-20T09:38:16;7.20;99.90
23591;DHT22;11973;52.098;7.582;2023-12-20T09:40:42;7.20;99.90
23591;DHT22;11973;52.098;7.582;2023-12-20T09:43:13;7.20;99.90
23591;DHT22;11973;52.098;7.582;2023-12-20T09:45:40;7.20;99.90
23591;DHT22;11973;52.098;7.582;2023-12-20T09:48:07;7.20;99.90
23591;DHT22;11973;52.098;7.582;2023-12-20T09:50:36;7.20;99.90
23591;DHT22;11973;52.098;7.582;2023-12-20T09:53:03;7.20;99.90
23591;DHT22;11973;52.098;7.582;2023-12-20T09:55:31;7.20;99.90
23591;DHT22;11973;52.098;7.582;2023-12-20T09:57:57;7.20;99.90
23591;DHT22;11973;52.098;7.582;2023-12-20T10:00:23;7.20;99.90
23591;DHT22;11973;52.098;7.582;2023-12-20T10:02:58;7.20;99.90
23591;DHT22;11973;52.098;7.582;2023-12-20T10:05:31;7.20;99.90
23591;DHT22;11973;52.098;7.582;2023-12-20T10:07:58;7.20;99.90
23591;DHT22;11973;52.098;7.582;2023-12-20T10:10:24;7.20;99.90
23591;DHT22;11973;52.098;7.582;2023-12-20T10:13:07;7.30;99.90
23591;DHT22;11973;52.098;7.582;2023-12-20T10:15:34;7.20;99.90
23591;DHT22;11973;52.098;7.582;2023-12-20T10:18:03;7.30;99.90
23591;DHT22;11973;52.098;7.582;2023-12-20T10:20:30;7.30;99.90
23591;DHT22;11973;52.098;7.582;2023-12-20T10:22:57;7.30;99.90
23591;DHT22;11973;52.098;7.582;2023-12-20T10:25:23;7.30;99.90
23591;DHT22;11973;52.098;7.582;2023-12-20T10:27:50;7.30;99.90
23591;DHT22;11973;52.098;7.582;2023-12-20T10:30:33;7.40;99.90
23591;DHT22;11973;52.098;7.582;2023-12-20T10:32:59;7.40;99.90
23591;DHT22;11973;52.098;7.582;2023-12-20T10:35:25;7.40;99.90
23591;DHT22;11973;52.098;7.582;2023-12-20T10:37:55;7.40;99.90
23591;DHT22;11973;52.098;7.582;2023-12-20T10:40:22;7.40;99.90
23591;DHT22;11973;52.098;7.582;2023-12-20T10:42:49;7.40;99.90
23591;DHT22;11973;52.098;7.582;2023-12-20T10:45:16;7.40;99.90
23591;DHT22;11973;52.098;7.582;2023-12-20T10:47:46;7.50;99.90
23591;DHT22;11973;52.098;7.582;2023-12-20T10:50:12;7.50;99.90
23591;DHT22;11973;52.098;7.582;2023-12-20T10:52:38;7.60;99.90
23591;DHT22;11973;52.098;7.582;2023-12-20T10:55:06;7.70;99.90
23591;DHT22;11973;52.098;7.582;2023-12-20T10:57:33;7.70;99.90
23591;DHT22;11973;52.098;7.582;2023-12-20T11:00:01;7.70;99.90
23591;DHT22;11973;52.098;7.582;2023-12-20T11:02:32;7.80;99.90
23591;DHT22;11973;52.098;7.582;2023-12-20T11:13:37;7.90;99.90
23591;DHT22;11973;52.098;7.582;2023-12-20T11:16:05;7.90;99.90
23591;DHT22;11973;52.098;7.582;2023-12-20T11:18:32;7.90;99.90
23591;DHT22;11973;52.098;7.582;2023-12-20T11:21:01;8.00;99.90
23591;DHT22;11973;52.098;7.582;2023-12-20T11:23:34;8.00;99.90
23591;DHT22;11973;52.098;7.582;2023-12-20T11:26:00;8.10;99.90
23591;DHT22;11973;52.098;7.582;2023-12-20T11:28:27;8.20;99.90
23591;DHT22;11973;52.098;7.582;2023-12-20T11:30:55;8.20;99.90
23591;DHT22;11973;52.098;7.582;2023-12-20T11:33:46;8.30;99.90
23591;DHT22;11973;52.098;7.582;2023-12-20T11:36:18;8.40;99.90
23591;DHT22;11973;52.098;7.582;2023-12-20T11:38:55;8.40;99.90
23591;DHT22;11973;52.098;7.582;2023-12-20T11:41:23;8.40;99.90
23591;DHT22;11973;52.098;7.582;2023-12-20T11:43:53;8.40;99.90
23591;DHT22;11973;52.098;7.582;2023-12-20T11:46:19;8.40;99.90
23591;DHT22;11973;52.098;7.582;2023-12-20T11:48:45;8.40;99.90
23591;DHT22;11973;52.098;7.582;2023-12-20T11:51:13;8.40;99.90
23591;DHT22;11973;52.098;7.582;2023-12-20T11:53:42;8.40;99.90
23591;DHT22;11973;52.098;7.582;2023-12-20T11:56:09;8.50;99.90
23591;DHT22;11973;52.098;7.582;2023-12-20T11:58:35;8.50;99.90
23591;DHT22;11973;52.098;7.582;2023-12-20T12:01:01;8.60;99.90
23591;DHT22;11973;52.098;7.582;2023-12-20T12:03:32;8.60;99.90
23591;DHT22;11973;52.098;7.582;2023-12-20T12:05:58;8.70;99.90
23591;DHT22;11973;52.098;7.582;2023-12-20T12:08:25;8.70;99.90
23591;DHT22;11973;52.098;7.582;2023-12-20T12:10:51;8.70;99.90
23591;DHT22;11973;52.098;7.582;2023-12-20T12:13:17;8.70;99.90
23591;DHT22;11973;52.098;7.582;2023-12-20T12:15:43;8.70;99.90
23591;DHT22;11973;52.098;7.582;2023-12-20T12:18:10;8.80;99.90
23591;DHT22;11973;52.098;7.582;2023-12-20T12:20:36;8.80;99.90
23591;DHT22;11973;52.098;7.582;2023-12-20T12:23:06;8.90;99.90
23591;DHT22;11973;52.098;7.582;2023-12-20T12:25:34;8.90;99.90
23591;DHT22;11973;52.098;7.582;2023-12-20T12:28:01;8.90;99.90
23591;DHT22;11973;52.098;7.582;2023-12-20T12:30:27;8.80;99.90
23591;DHT22;11973;52.098;7.582;2023-12-20T12:32:53;8.80;99.90
23591;DHT22;11973;52.098;7.582;2023-12-20T12:35:20;8.60;99.90
23591;DHT22;11973;52.098;7.582;2023-12-20T12:37:46;8.50;99.90
23591;DHT22;11973;52.098;7.582;2023-12-20T12:40:14;8.30;99.90
23591;DHT22;11973;52.098;7.582;2023-12-20T12:42:41;8.00;99.90
23591;DHT22;11973;52.098;7.582;2023-12-20T12:45:08;7.80;99.90
23591;DHT22;11973;52.098;7.582;2023-12-20T12:47:34;7.60;99.90
23591;DHT22;11973;52.098;7.582;2023-12-20T12:50:01;7.40;99.90
23591;DHT22;11973;52.098;7.582;2023-12-20T12:52:27;7.20;99.90
23591;DHT22;11973;52.098;7.582;2023-12-20T12:54:53;7.00;99.90
23591;DHT22;11973;52.098;7.582;2023-12-20T12:57:19;6.90;99.90
23591;DHT22;11973;52.098;7.582;2023-12-20T12:59:45;6.70;99.90
23591;DHT22;11973;52.098;7.582;2023-12-20T13:02:21;6.60;99.90
23591;DHT22;11973;52.098;7.582;2023-12-20T13:04:47;6.60;99.90
23591;DHT22;11973;52.098;7.582;2023-12-20T13:07:13;6.50;99.90
23591;DHT22;11973;52.098;7.582;2023-12-20T13:09:39;6.50;99.90
23591;DHT22;11973;52.098;7.582;2023-12-20T13:12:07;6.50;99.90
23591;DHT22;11973;52.098;7.582;2023-12-20T13:14:34;6.50;99.90
23591;DHT22;11973;52.098;7.582;2023-12-20T13:17:01;6.40;99.90
23591;DHT22;11973;52.098;7.582;2023-12-20T13:19:27;6.40;99.90
23591;DHT22;11973;52.098;7.582;2023-12-20T13:21:53;6.40;99.90
23591;DHT22;11973;52.098;7.582;2023-12-20T13:24:19;6.40;99.90
23591;DHT22;11973;52.098;7.582;2023-12-20T13:26:44;6.40;99.90
23591;DHT22;11973;52.098;7.582;2023-12-20T13:29:10;6.40;99.90
23591;DHT22;11973;52.098;7.582;2023-12-20T13:31:38;6.40;99.90
23591;DHT22;11973;52.098;7.582;2023-12-20T13:34:06;6.40;99.90
23591;DHT22;11973;52.098;7.582;2023-12-20T13:36:32;6.40;99.90
23591;DHT22;11973;52.098;7.582;2023-12-20T13:38:58;6.40;99.90
23591;DHT22;11973;52.098;7.582;2023-12-20T13:41:24;6.40;99.90
23591;DHT22;11973;52.098;7.582;2023-12-20T13:43:52;6.40;99.90
23591;DHT22;11973;52.098;7.582;2023-12-20T13:46:18;6.40;99.90
23591;DHT22;11973;52.098;7.582;2023-12-20T13:48:44;6.40;99.90
23591;DHT22;11973;52.098;7.582;2023-12-20T13:51:10;6.40;99.90
23591;DHT22;11973;52.098;7.582;2023-12-20T13:53:37;6.40;99.90
23591;DHT22;11973;52.098;7.582;2023-12-20T13:56:06;6.40;99.90
23591;DHT22;11973;52.098;7.582;2023-12-20T13:58:32;6.40;99.90
23591;DHT22;11973;52.098;7.582;2023-12-20T14:00:58;6.40;99.90
23591;DHT22;11973;52.098;7.582;2023-12-20T14:03:24;6.40;99.90
23591;DHT22;11973;52.098;7.582;2023-12-20T14:05:50;6.40;99.90
23591;DHT22;11973;52.098;7.582;2023-12-20T14:08:15;6.40;99.90
23591;DHT22;11973;52.098;7.582;2023-12-20T14:10:41;6.40;99.90
23591;DHT22;11973;52.098;7.582;2023-12-20T14:13:07;6.40;99.90
23591;DHT22;11973;52.098;7.582;2023-12-20T14:15:33;6.40;99.90
23591;DHT22;11973;52.098;7.582;2023-12-20T14:18:06;6.40;99.90
23591;DHT22;11973;52.098;7.582;2023-12-20T14:20:32;6.40;99.90
23591;DHT22;11973;52.098;7.582;2023-12-20T14:23:01;6.50;99.90
23591;DHT22;11973;52.098;7.582;2023-12-20T14:25:27;6.50;99.90
23591;DHT22;11973;52.098;7.582;2023-12-20T14:27:53;6.50;99.90
23591;DHT22;11973;52.098;7.582;2023-12-20T14:30:19;6.50;99.90
23591;DHT22;11973;52.098;7.582;2023-12-20T14:32:45;6.50;99.90
23591;DHT22;11973;52.098;7.582;2023-12-20T14:35:12;6.50;99.90
23591;DHT22;11973;52.098;7.582;2023-12-20T14:37:37;6.50;99.90
23591;DHT22;11973;52.098;7.582;2023-12-20T14:40:06;6.50;99.90
23591;DHT22;11973;52.098;7.582;2023-12-20T14:42:36;6.50;99.90
23591;DHT22;11973;52.098;7.582;2023-12-20T14:45:02;6.50;99.90
23591;DHT22;11973;52.098;7.582;2023-12-20T14:47:28;6.50;99.90
23591;DHT22;11973;52.098;7.582;2023-12-20T14:49:54;6.50;99.90
23591;DHT22;11973;52.098;7.582;2023-12-20T14:52:20;6.50;99.90
23591;DHT22;11973;52.098;7.582;2023-12-20T14:54:46;6.50;99.90
23591;DHT22;11973;52.098;7.582;2023-12-20T14:57:12;6.50;99.90
23591;DHT22;11973;52.098;7.582;2023-12-20T14:59:38;6.60;99.90
23591;DHT22;11973;52.098;7.582;2023-12-20T15:02:04;6.60;99.90
23591;DHT22;11973;52.098;7.582;2023-12-20T15:04:31;6.60;99.90
23591;DHT22;11973;52.098;7.582;2023-12-20T15:06:57;6.70;99.90
23591;DHT22;11973;52.098;7.582;2023-12-20T15:09:26;6.80;99.90
23591;DHT22;11973;52.098;7.582;2023-12-20T15:11:59;6.70;99.90
23591;DHT22;11973;52.098;7.582;2023-12-20T15:14:26;6.80;99.90
23591;DHT22;11973;52.098;7.582;2023-12-20T15:16:54;6.80;99.90
23591;DHT22;11973;52.098;7.582;2023-12-20T15:19:21;6.80;99.90
23591;DHT22;11973;52.098;7.582;2023-12-20T15:21:47;6.90;99.90
23591;DHT22;11973;52.098;7.582;2023-12-20T15:24:13;6.90;99.90
23591;DHT22;11973;52.098;7.582;2023-12-20T15:26:44;6.90;99.90
23591;DHT22;11973;52.098;7.582;2023-12-20T15:29:10;7.00;99.90
23591;DHT22;11973;52.098;7.582;2023-12-20T15:31:47;7.00;99.90
23591;DHT22;11973;52.098;7.582;2023-12-20T15:34:15;7.00;99.90
23591;DHT22;11973;52.098;7.582;2023-12-20T15:36:45;7.00;99.90
23591;DHT22;11973;52.098;7.582;2023-12-20T15:39:14;7.00;99.90
23591;DHT22;11973;52.098;7.582;2023-12-20T15:41:40;7.10;99.90
23591;DHT22;11973;52.098;7.582;2023-12-20T15:44:08;7.10;99.90
23591;DHT22;11973;52.098;7.582;2023-12-20T15:46:37;7.10;99.90
23591;DHT22;11973;52.098;7.582;2023-12-20T15:49:04;7.10;99.90
23591;DHT22;11973;52.098;7.582;2023-12-20T15:51:30;7.10;99.90
23591;DHT22;11973;52.098;7.582;2023-12-20T15:53:55;7.20;99.90
23591;DHT22;11973;52.098;7.582;2023-12-20T15:56:22;7.20;99.90
23591;DHT22;11973;52.098;7.582;2023-12-20T15:58:48;7.20;99.90
23591;DHT22;11973;52.098;7.582;2023-12-20T16:01:14;7.20;99.90
23591;DHT22;11973;52.098;7.582;2023-12-20T16:03:41;7.20;99.90
23591;DHT22;11973;52.098;7.582;2023-12-20T16:06:09;7.20;99.90
23591;DHT22;11973;52.098;7.582;2023-12-20T16:08:35;7.20;99.90
23591;DHT22;11973;52.098;7.582;2023-12-20T16:11:01;7.20;99.90
23591;DHT22;11973;52.098;7.582;2023-12-20T16:13:27;7.20;99.90
23591;DHT22;11973;52.098;7.582;2023-12-20T16:15:52;7.20;99.90
23591;DHT22;11973;52.098;7.582;2023-12-20T16:31:09;7.30;99.90
23591;DHT22;11973;52.098;7.582;2023-12-20T16:36:53;7.40;99.90
23591;DHT22;11973;52.098;7.582;2023-12-20T16:39:22;7.40;99.90
23591;DHT22;11973;52.098;7.582;2023-12-20T16:41:48;7.40;99.90
23591;DHT22;11973;52.098;7.582;2023-12-20T16:44:14;7.40;99.90
23591;DHT22;11973;52.098;7.582;2023-12-20T16:46:40;7.40;99.90
23591;DHT22;11973;52.098;7.582;2023-12-20T16:49:07;7.40;99.90
23591;DHT22;11973;52.098;7.582;2023-12-20T16:51:33;7.30;99.90
23591;DHT22;11973;52.098;7.582;2023-12-20T16:54:00;7.30;99.90
23591;DHT22;11973;52.098;7.582;2023-12-20T16:56:26;7.30;99.90
23591;DHT22;11973;52.098;7.582;2023-12-20T16:58:51;7.30;99.90
23591;DHT22;11973;52.098;7.582;2023-12-20T17:01:17;7.30;99.90
23591;DHT22;11973;52.098;7.582;2023-12-20T17:03:43;7.30;99.90
23591;DHT22;11973;52.098;7.582;2023-12-20T17:06:10;7.30;99.90
23591;DHT22;11973;52.098;7.582;2023-12-20T17:08:35;7.30;99.90
23591;DHT22;11973;52.098;7.582;2023-12-20T17:11:01;7.30;99.90
23591;DHT22;11973;52.098;7.582;2023-12-20T17:13:27;7.20;99.90
23591;DHT22;11973;52.098;7.582;2023-12-20T17:15:53;7.30;99.90
23591;DHT22;11973;52.098;7.582;2023-12-20T17:18:19;7.30;99.90
23591;DHT22;11973;52.098;7.582;2023-12-20T17:20:45;7.20;99.90
23591;DHT22;11973;52.098;7.582;2023-12-20T17:26:58;7.20;99.90
23591;DHT22;11973;52.098;7.582;2023-12-20T17:29:24;7.20;99.90
23591;DHT22;11973;52.098;7.582;2023-12-20T17:31:50;7.20;99.90
23591;DHT22;11973;52.098;7.582;2023-12-20T17:34:16;7.30;99.90
23591;DHT22;11973;52.098;7.582;2023-12-20T17:36:42;7.20;99.90
23591;DHT22;11973;52.098;7.582;2023-12-20T17:39:08;7.20;99.90
23591;DHT22;11973;52.098;7.582;2023-12-20T17:41:33;7.30;99.90
23591;DHT22;11973;52.098;7.582;2023-12-20T17:44:01;7.30;99.90
23591;DHT22;11973;52.098;7.582;2023-12-20T17:46:27;7.30;99.90
23591;DHT22;11973;52.098;7.582;2023-12-20T17:48:53;7.30;99.90
23591;DHT22;11973;52.098;7.582;2023-12-20T17:51:19;7.30;99.90
23591;DHT22;11973;52.098;7.582;2023-12-20T17:53:45;7.30;99.90
23591;DHT22;11973;52.098;7.582;2023-12-20T17:56:11;7.30;99.90
23591;DHT22;11973;52.098;7.582;2023-12-20T17:58:36;7.30;99.90
23591;DHT22;11973;52.098;7.582;2023-12-20T18:01:02;7.30;99.90
23591;DHT22;11973;52.098;7.582;2023-12-20T18:03:29;7.30;99.90
23591;DHT22;11973;52.098;7.582;2023-12-20T18:05:55;7.30;99.90
23591;DHT22;11973;52.098;7.582;2023-12-20T18:08:20;7.30;99.90
23591;DHT22;11973;52.098;7.582;2023-12-20T18:10:46;7.30;99.90
23591;DHT22;11973;52.098;7.582;2023-12-20T18:13:12;7.30;99.90
23591;DHT22;11973;52.098;7.582;2023-12-20T18:15:38;7.30;99.90
23591;DHT22;11973;52.098;7.582;2023-12-20T18:18:03;7.30;99.90
23591;DHT22;11973;52.098;7.582;2023-12-20T18:20:29;7.30;99.90
23591;DHT22;11973;52.098;7.582;2023-12-20T18:22:55;7.30;99.90
23591;DHT22;11973;52.098;7.582;2023-12-20T18:25:21;7.30;99.90
23591;DHT22;11973;52.098;7.582;2023-12-20T18:27:46;7.40;99.90
23591;DHT22;11973;52.098;7.582;2023-12-20T18:30:12;7.40;99.90
23591;DHT22;11973;52.098;7.582;2023-12-20T18:32:38;7.40;99.90
23591;DHT22;11973;52.098;7.582;2023-12-20T18:35:04;7.40;99.90
23591;DHT22;11973;52.098;7.582;2023-12-20T18:37:30;7.40;99.90
23591;DHT22;11973;52.098;7.582;2023-12-20T18:39:56;7.40;99.90
23591;DHT22;11973;52.098;7.582;2023-12-20T18:42:22;7.40;99.90
23591;DHT22;11973;52.098;7.582;2023-12-20T18:44:47;7.40;99.90
23591;DHT22;11973;52.098;7.582;2023-12-20T18:47:13;7.40;99.90
23591;DHT22;11973;52.098;7.582;2023-12-20T18:49:39;7.40;99.90
23591;DHT22;11973;52.098;7.582;2023-12-20T18:52:05;7.40;99.90
23591;DHT22;11973;52.098;7.582;2023-12-20T18:54:32;7.40;99.90
23591;DHT22;11973;52.098;7.582;2023-12-20T18:56:58;7.40;99.90
23591;DHT22;11973;52.098;7.582;2023-12-20T18:59:24;7.40;99.90
23591;DHT22;11973;52.098;7.582;2023-12-20T19:01:50;7.40;99.90
23591;DHT22;11973;52.098;7.582;2023-12-20T19:04:16;7.40;99.90
23591;DHT22;11973;52.098;7.582;2023-12-20T19:06:42;7.40;99.90
23591;DHT22;11973;52.098;7.582;2023-12-20T19:09:08;7.40;99.90
23591;DHT22;11973;52.098;7.582;2023-12-20T19:11:34;7.40;99.90
23591;DHT22;11973;52.098;7.582;2023-12-20T19:14:01;7.50;99.90
23591;DHT22;11973;52.098;7.582;2023-12-20T19:16:27;7.40;99.90
23591;DHT22;11973;52.098;7.582;2023-12-20T19:18:54;7.50;99.90
23591;DHT22;11973;52.098;7.582;2023-12-20T19:21:20;7.50;99.90
23591;DHT22;11973;52.098;7.582;2023-12-20T19:23:46;7.50;99.90
23591;DHT22;11973;52.098;7.582;2023-12-20T19:26:13;7.50;99.90
23591;DHT22;11973;52.098;7.582;2023-12-20T19:28:39;7.50;99.90
23591;DHT22;11973;52.098;7.582;2023-12-20T19:31:06;7.50;99.90
23591;DHT22;11973;52.098;7.582;2023-12-20T19:33:36;7.50;99.90
23591;DHT22;11973;52.098;7.582;2023-12-20T19:36:03;7.50;99.90
23591;DHT22;11973;52.098;7.582;2023-12-20T19:38:28;7.50;99.90
23591;DHT22;11973;52.098;7.582;2023-12-20T19:40:54;7.50;99.90
23591;DHT22;11973;52.098;7.582;2023-12-20T19:43:20;7.50;99.90
23591;DHT22;11973;52.098;7.582;2023-12-20T19:45:46;7.50;99.90
23591;DHT22;11973;52.098;7.582;2023-12-20T19:48:12;7.50;99.90
23591;DHT22;11973;52.098;7.582;2023-12-20T19:50:37;7.60;99.90
23591;DHT22;11973;52.098;7.582;2023-12-20T19:53:03;7.50;99.90
23591;DHT22;11973;52.098;7.582;2023-12-20T19:55:30;7.60;99.90
23591;DHT22;11973;52.098;7.582;2023-12-20T19:57:58;7.50;99.90
23591;DHT22;11973;52.098;7.582;2023-12-20T20:00:25;7.50;99.90
23591;DHT22;11973;52.098;7.582;2023-12-20T20:02:51;7.50;99.90
23591;DHT22;11973;52.098;7.582;2023-12-20T20:05:16;7.50;99.90
23591;DHT22;11973;52.098;7.582;2023-12-20T20:07:42;7.50;99.90
23591;DHT22;11973;52.098;7.582;2023-12-20T20:10:08;7.50;99.90
23591;DHT22;11973;52.098;7.582;2023-12-20T20:12:34;7.50;99.90
23591;DHT22;11973;52.098;7.582;2023-12-20T20:15:01;7.50;99.90
23591;DHT22;11973;52.098;7.582;2023-12-20T20:17:26;7.50;99.90
23591;DHT22;11973;52.098;7.582;2023-12-20T20:19:52;7.60;99.90
23591;DHT22;11973;52.098;7.582;2023-12-20T20:22:18;7.60;99.90
23591;DHT22;11973;52.098;7.582;2023-12-20T20:24:45;7.60;99.90
23591;DHT22;11973;52.098;7.582;2023-12-20T20:27:20;7.60;99.90
23591;DHT22;11973;52.098;7.582;2023-12-20T20:29:48;7.60;99.90
23591;DHT22;11973;52.098;7.582;2023-12-20T20:32:14;7.60;99.90
23591;DHT22;11973;52.098;7.582;2023-12-20T20:34:39;7.60;99.90
23591;DHT22;11973;52.098;7.582;2023-12-20T20:37:05;7.60;99.90
23591;DHT22;11973;52.098;7.582;2023-12-20T20:39:32;7.60;99.90
23591;DHT22;11973;52.098;7.582;2023-12-20T20:41:58;7.60;99.90
23591;DHT22;11973;52.098;7.582;2023-12-20T20:44:24;7.60;99.90
23591;DHT22;11973;52.098;7.582;2023-12-20T20:46:50;7.60;99.90
23591;DHT22;11973;52.098;7.582;2023-12-20T20:49:16;7.60;99.90
23591;DHT22;11973;52.098;7.582;2023-12-20T20:51:43;7.70;99.90
23591;DHT22;11973;52.098;7.582;2023-12-20T20:54:09;7.70;99.90
23591;DHT22;11973;52.098;7.582;2023-12-20T20:56:36;7.70;99.90